createdAt,value
2023-04-29T00:00:49.343Z,100417.94
2023-04-29T00:03:16.309Z,100411.72
2023-04-29T00:05:43.322Z,100420.72
2023-04-29T00:08:10.124Z,100412.69
2023-04-29T00:10:37.707Z,100399.34
2023-04-29T00:13:04.512Z,100403.78
2023-04-29T00:15:31.398Z,100406.47
2023-04-29T00:17:58.171Z,100411.81
2023-04-29T00:20:24.979Z,100418.03
2023-04-29T00:22:51.972Z,100407.34
2023-04-29T00:25:18.743Z,100405.66
2023-04-29T00:27:45.547Z,100410.13
2023-04-29T00:30:12.374Z,100411.03
2023-04-29T00:32:39.191Z,100411.03
2023-04-29T00:35:06.651Z,100416.38
2023-04-29T00:37:34.538Z,100412.03
2023-04-29T00:40:01.301Z,100417.38
2023-04-29T00:42:29.475Z,100414.69
2023-04-29T00:44:56.211Z,100418.31
2023-04-29T00:47:23.003Z,100424.53
2023-04-29T00:49:50.032Z,100425.44
2023-04-29T00:52:18.026Z,100419.28
2023-04-29T00:54:44.987Z,100431.75
2023-04-29T00:57:12.174Z,100422.94
2023-04-29T00:59:39.126Z,100432.75
2023-04-29T01:02:06.927Z,100439.00
2023-04-29T01:04:33.844Z,100437.28
2023-04-29T01:07:16.946Z,100443.50
2023-04-29T01:10:07.674Z,100436.44
2023-04-29T01:12:46.976Z,100440.97
2023-04-29T01:15:29.237Z,100443.69
2023-04-29T01:18:26.534Z,100450.88
2023-04-29T01:20:53.667Z,100452.69
2023-04-29T01:23:20.437Z,100450.91
2023-04-29T01:25:48.866Z,100455.41
2023-04-29T01:28:42.245Z,100458.94
2023-04-29T01:31:20.553Z,100461.69
2023-04-29T01:34:15.268Z,100455.53
2023-04-29T01:37:06.580Z,100454.66
2023-04-29T01:39:46.064Z,100463.56
2023-04-29T01:42:29.291Z,100464.47
2023-04-29T01:44:57.209Z,100461.88
2023-04-29T01:47:24.844Z,100465.41
2023-04-29T01:49:51.839Z,100469.00
2023-04-29T01:52:18.820Z,100476.16
2023-04-29T01:54:46.100Z,100478.00
2023-04-29T01:57:12.945Z,100480.66
2023-04-29T01:59:40.068Z,100483.34
2023-04-29T02:02:06.866Z,100484.25
2023-04-29T02:04:34.463Z,100491.41
2023-04-29T02:07:01.612Z,100490.56
2023-04-29T02:09:28.363Z,100498.59
2023-04-29T02:11:55.226Z,100509.34
2023-04-29T02:14:21.999Z,100505.88
2023-04-29T02:16:49.010Z,100517.44
2023-04-29T02:19:16.487Z,100521.06
2023-04-29T02:21:43.413Z,100525.59
2023-04-29T02:24:10.412Z,100525.63
2023-04-29T02:26:38.239Z,100528.34
2023-04-29T02:29:05.047Z,100535.50
2023-04-29T02:31:32.694Z,100530.25
2023-04-29T02:34:00.364Z,100534.78
2023-04-29T02:36:27.311Z,100542.78
2023-04-29T02:38:55.892Z,100548.13
2023-04-29T02:41:23.070Z,100549.94
2023-04-29T02:43:49.844Z,100543.75
2023-04-29T02:46:16.836Z,100551.78
2023-04-29T02:48:43.634Z,100553.56
2023-04-29T02:51:10.697Z,100560.75
2023-04-29T02:53:37.583Z,100560.81
2023-04-29T02:56:05.259Z,100560.84
2023-04-29T02:58:32.042Z,100571.59
2023-04-29T03:00:58.920Z,100579.66
2023-04-29T03:03:25.858Z,100579.69
2023-04-29T03:05:52.855Z,100572.59
2023-04-29T03:08:19.665Z,100568.25
2023-04-29T03:10:46.604Z,100579.84
2023-04-29T03:13:13.965Z,100580.81
2023-04-29T03:15:40.942Z,100573.72
2023-04-29T03:18:07.881Z,100581.78
2023-04-29T03:20:34.783Z,100578.31
2023-04-29T03:23:02.199Z,100574.78
2023-04-29T03:25:29.130Z,100579.22
2023-04-29T03:27:56.053Z,100588.16
2023-04-29T03:30:22.910Z,100588.16
2023-04-29T03:32:49.674Z,100595.31
2023-04-29T03:35:16.542Z,100598.03
2023-04-29T03:37:44.568Z,100593.59
2023-04-29T03:40:12.722Z,100602.50
2023-04-29T03:42:39.543Z,100600.72
2023-04-29T03:45:07.138Z,100599.00
2023-04-29T03:47:34.165Z,100597.22
2023-04-29T03:50:01.029Z,100607.97
2023-04-29T03:52:27.842Z,100609.75
2023-04-29T03:54:54.607Z,100609.75
2023-04-29T03:57:21.562Z,100612.41
2023-04-29T03:59:50.644Z,100620.41
2023-04-29T04:02:17.985Z,100613.38
2023-04-29T04:04:45.349Z,100629.44
2023-04-29T04:07:12.339Z,100635.72
2023-04-29T04:09:39.117Z,100640.16
2023-04-29T04:12:06.671Z,100635.81
2023-04-29T04:14:33.508Z,100656.28
2023-04-29T04:17:01.374Z,100652.78
2023-04-29T04:19:29.136Z,100655.50
2023-04-29T04:21:56.197Z,100671.50
2023-04-29T04:24:23.451Z,100666.22
2023-04-29T04:26:50.308Z,100670.75
2023-04-29T04:29:17.101Z,100669.91
2023-04-29T04:31:46.272Z,100676.19
2023-04-29T04:34:14.614Z,100685.06
2023-04-29T04:36:42.186Z,100690.41
2023-04-29T04:39:08.982Z,100695.78
2023-04-29T04:41:35.795Z,100688.72
2023-04-29T04:44:03.024Z,100697.56
2023-04-29T04:46:29.781Z,100705.53
2023-04-29T04:48:56.587Z,100701.09
2023-04-29T04:51:23.342Z,100705.50
2023-04-29T04:53:50.156Z,100712.56
2023-04-29T04:56:17.082Z,100713.41
2023-04-29T04:58:44.384Z,100714.34
2023-04-29T05:01:11.400Z,100725.00
2023-04-29T05:03:38.340Z,100738.31
2023-04-29T05:06:05.347Z,100740.13
2023-04-29T05:08:32.144Z,100748.13
2023-04-29T05:10:58.918Z,100747.28
2023-04-29T05:13:25.910Z,100746.41
2023-04-29T05:15:52.809Z,100753.50
2023-04-29T05:18:19.657Z,100751.78
2023-04-29T05:20:46.445Z,100752.72
2023-04-29T05:23:13.202Z,100750.97
2023-04-29T05:25:40.115Z,100757.13
2023-04-29T05:28:07.743Z,100758.91
2023-04-29T05:30:34.752Z,100756.28
2023-04-29T05:33:01.743Z,100763.38
2023-04-29T05:35:28.631Z,100764.22
2023-04-29T05:37:55.404Z,100769.59
2023-04-29T05:40:23.140Z,100771.38
2023-04-29T05:42:49.938Z,100775.81
2023-04-29T05:45:16.716Z,100780.25
2023-04-29T05:47:43.595Z,100782.84
2023-04-29T05:50:11.521Z,100784.63
2023-04-29T05:52:39.164Z,100793.44
2023-04-29T05:55:06.339Z,100795.22
2023-04-29T05:57:33.174Z,100791.69
2023-04-29T06:00:00.297Z,100796.94
2023-04-29T06:02:27.927Z,100807.53
2023-04-29T06:04:55.143Z,100807.50
2023-04-29T06:07:22.464Z,100813.69
2023-04-29T06:09:49.324Z,100823.44
2023-04-29T06:12:16.563Z,100825.19
2023-04-29T06:14:43.889Z,100829.63
2023-04-29T06:17:11.308Z,100835.78
2023-04-29T06:19:38.489Z,100850.88
2023-04-29T06:22:05.381Z,100852.66
2023-04-29T06:24:32.155Z,100854.47
2023-04-29T06:26:58.953Z,100855.34
2023-04-29T06:29:25.961Z,100861.56
2023-04-29T06:31:54.083Z,100869.56
2023-04-29T06:34:20.951Z,100869.56
2023-04-29T06:36:47.726Z,100874.00
2023-04-29T06:39:14.499Z,100871.34
2023-04-29T06:41:41.398Z,100880.22
2023-04-29T06:44:08.593Z,100875.78
2023-04-29T06:46:35.929Z,100898.81
2023-04-29T06:49:02.759Z,100890.81
2023-04-29T06:51:29.569Z,100894.31
2023-04-29T06:53:56.361Z,100900.53
2023-04-29T06:56:23.792Z,100905.81
2023-04-29T06:58:50.605Z,100905.78
2023-04-29T07:01:17.449Z,100916.38
2023-04-29T07:03:44.540Z,100910.09
2023-04-29T07:06:11.487Z,100914.44
2023-04-29T07:08:38.276Z,100917.88
2023-04-29T07:11:05.158Z,100920.38
2023-04-29T07:13:32.029Z,100929.09
2023-04-29T07:15:58.854Z,100930.66
2023-04-29T07:18:25.637Z,100925.22
2023-04-29T07:20:52.988Z,100938.47
2023-04-29T07:23:19.835Z,100951.69
2023-04-29T07:25:46.586Z,100953.41
2023-04-29T07:28:13.371Z,100964.91
2023-04-29T07:30:40.168Z,100963.06
2023-04-29T07:33:07.015Z,100972.81
2023-04-29T07:35:34.056Z,100986.16
2023-04-29T07:38:01.121Z,100987.88
2023-04-29T07:40:27.881Z,100983.47
2023-04-29T07:42:54.613Z,100991.41
2023-04-29T07:45:21.430Z,100999.34
2023-04-29T07:47:48.336Z,100998.31
2023-04-29T07:50:16.108Z,100997.38
2023-04-29T07:52:42.881Z,101007.22
2023-04-29T07:55:09.765Z,101010.78
2023-04-29T07:57:36.788Z,101007.22
2023-04-29T08:00:04.769Z,101014.31
2023-04-29T08:02:31.676Z,101018.78
2023-04-29T08:04:59.103Z,101016.03
2023-04-29T08:07:26.284Z,101013.25
2023-04-29T08:09:53.079Z,101013.00
2023-04-29T08:12:19.903Z,101015.47
2023-04-29T08:14:46.634Z,101010.84
2023-04-29T08:17:13.414Z,101020.50
2023-04-29T08:19:40.950Z,101026.59
2023-04-29T08:22:07.692Z,101029.19
2023-04-29T08:24:35.141Z,101031.84
2023-04-29T08:27:01.947Z,101028.25
2023-04-29T08:29:32.816Z,101035.31
2023-04-29T08:31:59.767Z,101029.00
2023-04-29T08:34:26.801Z,101038.81
2023-04-29T08:36:53.558Z,101044.03
2023-04-29T08:39:20.603Z,101040.34
2023-04-29T08:41:51.963Z,101044.63
2023-04-29T08:44:18.805Z,101041.81
2023-04-29T08:46:46.694Z,101048.75
2023-04-29T08:49:14.193Z,101049.50
2023-04-29T08:51:41.006Z,101048.50
2023-04-29T08:54:07.994Z,101053.72
2023-04-29T08:56:34.948Z,101058.06
2023-04-29T08:59:02.902Z,101052.59
2023-04-29T09:01:31.025Z,101053.41
2023-04-29T09:04:14.424Z,101063.97
2023-04-29T09:06:41.543Z,101063.88
2023-04-29T09:09:08.796Z,101067.34
2023-04-29T09:11:37.006Z,101065.47
2023-04-29T09:14:08.131Z,101061.88
2023-04-29T09:16:37.335Z,101064.56
2023-04-29T09:19:04.195Z,101070.66
2023-04-29T09:21:32.228Z,101087.47
2023-04-29T09:24:01.524Z,101090.03
2023-04-29T09:26:41.694Z,101088.09
2023-04-29T09:29:16.040Z,101092.56
2023-04-29T09:31:42.897Z,101085.44
2023-04-29T09:34:11.847Z,101088.16
2023-04-29T09:36:56.823Z,101095.28
2023-04-29T09:39:24.134Z,101102.41
2023-04-29T09:41:53.636Z,101097.03
2023-04-29T09:44:33.944Z,101097.97
2023-04-29T09:47:06.272Z,101104.38
2023-04-29T09:49:42.696Z,101108.03
2023-04-29T09:52:16.481Z,101108.03
2023-04-29T09:54:44.854Z,101115.13
2023-04-29T09:57:15.569Z,101114.19
2023-04-29T09:59:42.920Z,101116.81
2023-04-29T10:02:19.046Z,101118.53
2023-04-29T10:04:49.083Z,101122.13
2023-04-29T10:07:17.995Z,101119.47
2023-04-29T10:09:49.501Z,101130.09
2023-04-29T10:12:18.957Z,101120.22
2023-04-29T10:15:12.261Z,101131.84
2023-04-29T10:18:21.459Z,101132.84
2023-04-29T10:20:49.097Z,101133.66
2023-04-29T10:23:17.364Z,101129.09
2023-04-29T10:25:45.280Z,101130.66
2023-04-29T10:28:16.693Z,101126.91
2023-04-29T10:30:45.322Z,101132.16
2023-04-29T10:33:12.970Z,101127.59
2023-04-29T10:35:40.226Z,101127.56
2023-04-29T10:38:19.016Z,101132.03
2023-04-29T10:40:47.683Z,101129.44
2023-04-29T10:43:15.568Z,101135.84
2023-04-29T10:45:42.414Z,101140.47
2023-04-29T10:48:12.886Z,101129.69
2023-04-29T10:50:48.878Z,101135.91
2023-04-29T10:53:16.730Z,101125.09
2023-04-29T10:55:47.786Z,101131.09
2023-04-29T10:58:46.648Z,101131.81
2023-04-29T11:01:16.744Z,101128.19
2023-04-29T11:04:04.757Z,101128.94
2023-04-29T11:06:37.622Z,101132.44
2023-04-29T11:09:12.601Z,101129.66
2023-04-29T11:11:58.255Z,101136.75
2023-04-29T11:14:31.848Z,101138.56
2023-04-29T11:17:09.935Z,101138.66
2023-04-29T11:19:41.934Z,101130.75
2023-04-29T11:22:24.131Z,101137.09
2023-04-29T11:25:00.514Z,101133.53
2023-04-29T11:27:32.540Z,101132.72
2023-04-29T11:30:01.484Z,101134.41
2023-04-29T11:32:34.691Z,101138.75
2023-04-29T11:35:16.975Z,101133.13
2023-04-29T11:37:46.117Z,101145.44
2023-04-29T11:40:14.213Z,101138.22
2023-04-29T11:42:49.030Z,101150.63
2023-04-29T11:45:19.124Z,101147.19
2023-04-29T11:47:47.827Z,101151.69
2023-04-29T11:50:19.137Z,101161.59
2023-04-29T11:52:50.002Z,101162.50
2023-04-29T11:55:17.040Z,101158.94
2023-04-29T11:57:44.346Z,101157.06
2023-04-29T12:00:13.756Z,101164.88
2023-04-29T12:02:46.173Z,101154.91
2023-04-29T12:05:13.822Z,101162.75
2023-04-29T12:07:41.195Z,101170.63
2023-04-29T12:10:10.777Z,101165.28
2023-04-29T12:12:40.798Z,101170.56
2023-04-29T12:15:10.160Z,101176.81
2023-04-29T12:17:38.428Z,101167.97
2023-04-29T12:20:08.145Z,101167.97
2023-04-29T12:22:35.628Z,101162.59
2023-04-29T12:25:04.510Z,101174.13
2023-04-29T12:27:33.312Z,101167.72
2023-04-29T12:30:00.312Z,101173.91
2023-04-29T12:32:27.185Z,101162.28
2023-04-29T12:34:55.282Z,101164.88
2023-04-29T12:37:23.731Z,101178.13
2023-04-29T12:39:50.942Z,101181.72
2023-04-29T12:42:18.108Z,101171.97
2023-04-29T12:44:48.972Z,101186.28
2023-04-29T12:47:17.450Z,101183.63
2023-04-29T12:49:49.122Z,101183.69
2023-04-29T12:52:17.282Z,101186.53
2023-04-29T12:54:44.337Z,101191.09
2023-04-29T12:57:12.228Z,101187.66
2023-04-29T12:59:41.088Z,101186.88
2023-04-29T13:02:08.374Z,101187.97
2023-04-29T13:04:35.442Z,101184.50
2023-04-29T13:07:04.302Z,101198.84
2023-04-29T13:09:31.415Z,101184.56
2023-04-29T13:11:59.244Z,101190.78
2023-04-29T13:14:26.804Z,101180.03
2023-04-29T13:16:53.849Z,101188.00
2023-04-29T13:19:38.232Z,101189.88
2023-04-29T13:22:07.513Z,101188.19
2023-04-29T13:24:35.893Z,101190.91
2023-04-29T13:27:05.826Z,101186.50
2023-04-29T13:29:32.616Z,101195.44
2023-04-29T13:31:59.448Z,101198.13
2023-04-29T13:34:26.296Z,101194.53
2023-04-29T13:36:53.046Z,101193.59
2023-04-29T13:39:22.966Z,101189.97
2023-04-29T13:41:50.024Z,101201.53
2023-04-29T13:44:27.256Z,101196.09
2023-04-29T13:46:57.846Z,101194.25
2023-04-29T13:49:54.703Z,101197.72
2023-04-29T13:53:09.980Z,101199.50
2023-04-29T14:00:01.099Z,101210.28
2023-04-29T14:02:29.377Z,101212.00
2023-04-29T14:04:56.954Z,101221.81
2023-04-29T14:07:23.993Z,101220.84
2023-04-29T14:09:51.933Z,101221.66
2023-04-29T14:12:18.761Z,101222.50
2023-04-29T14:14:45.622Z,101221.50
2023-04-29T14:17:12.408Z,101226.84
2023-04-29T14:19:39.219Z,101225.06
2023-04-29T14:22:06.002Z,101229.41
2023-04-29T14:24:32.830Z,101240.97
2023-04-29T14:26:59.615Z,101232.91
2023-04-29T14:29:26.392Z,101233.84
2023-04-29T14:31:53.295Z,101241.06
2023-04-29T14:34:20.107Z,101240.19
2023-04-29T14:36:47.047Z,101244.69
2023-04-29T14:39:13.887Z,101246.44
2023-04-29T14:41:40.674Z,101248.25
2023-04-29T14:44:07.435Z,101251.81
2023-04-29T14:46:34.399Z,101256.34
2023-04-29T14:49:01.849Z,101254.59
2023-04-29T14:51:29.366Z,101266.31
2023-04-29T14:53:56.256Z,101264.63
2023-04-29T14:56:23.080Z,101260.25
2023-04-29T14:58:49.857Z,101258.38
2023-04-29T15:01:16.667Z,101262.81
2023-04-29T15:03:45.048Z,101265.41
2023-04-29T15:06:13.105Z,101266.25
2023-04-29T15:08:39.987Z,101263.50
2023-04-29T15:11:06.957Z,101265.19
2023-04-29T15:13:33.719Z,101266.03
2023-04-29T15:16:00.772Z,101269.66
2023-04-29T15:18:27.696Z,101274.13
2023-04-29T15:20:54.480Z,101269.69
2023-04-29T15:23:21.287Z,101276.00
2023-04-29T15:25:48.111Z,101272.38
2023-04-29T15:28:14.957Z,101275.03
2023-04-29T15:30:41.709Z,101275.81
2023-04-29T15:33:08.599Z,101282.88
2023-04-29T15:35:36.485Z,101285.53
2023-04-29T15:38:03.366Z,101287.44
2023-04-29T15:40:30.114Z,101293.91
2023-04-29T15:42:56.900Z,101291.31
2023-04-29T15:45:23.652Z,101285.09
2023-04-29T15:47:50.662Z,101291.31
2023-04-29T15:50:17.467Z,101283.19
2023-04-29T15:52:44.252Z,101286.63
2023-04-29T15:55:11.900Z,101281.91
2023-04-29T15:57:41.133Z,101286.09
2023-04-29T16:00:09.588Z,101281.34
2023-04-29T16:02:36.436Z,101283.75
2023-04-29T16:05:03.623Z,101287.00
2023-04-29T16:07:30.639Z,101291.19
2023-04-29T16:09:57.403Z,101287.53
2023-04-29T16:12:24.220Z,101290.22
2023-04-29T16:14:51.341Z,101296.53
2023-04-29T16:17:18.344Z,101288.63
2023-04-29T16:19:45.127Z,101295.94
2023-04-29T16:22:12.036Z,101294.28
2023-04-29T16:24:38.860Z,101298.81
2023-04-29T16:27:05.917Z,101302.44
2023-04-29T16:29:33.038Z,101309.72
2023-04-29T16:31:59.860Z,101300.78
2023-04-29T16:34:26.659Z,101304.38
2023-04-29T16:36:53.452Z,101308.91
2023-04-29T16:39:20.221Z,101304.47
2023-04-29T16:41:47.013Z,101303.56
2023-04-29T16:44:14.427Z,101304.56
2023-04-29T16:46:41.636Z,101309.97
2023-04-29T16:49:08.694Z,101308.22
2023-04-29T16:51:35.621Z,101310.06
2023-04-29T16:54:02.620Z,101318.22
2023-04-29T16:56:31.598Z,101309.41
2023-04-29T16:58:58.388Z,101328.28
2023-04-29T17:01:25.300Z,101320.34
2023-04-29T17:03:52.126Z,101322.25
2023-04-29T17:06:18.954Z,101325.03
2023-04-29T17:08:45.930Z,101326.97
2023-04-29T17:11:12.918Z,101330.59
2023-04-29T17:13:39.735Z,101334.25
2023-04-29T17:16:07.536Z,101328.91
2023-04-29T17:18:34.418Z,101342.41
2023-04-29T17:21:01.228Z,101344.22
2023-04-29T17:23:30.513Z,101350.53
2023-04-29T17:25:57.496Z,101348.84
2023-04-29T17:28:24.495Z,101340.00
2023-04-29T17:30:53.307Z,101355.22
2023-04-29T17:33:20.231Z,101355.38
2023-04-29T17:35:47.085Z,101362.63
2023-04-29T17:38:13.846Z,101363.63
2023-04-29T17:40:41.007Z,101369.13
2023-04-29T17:43:07.764Z,101369.22
2023-04-29T17:45:34.561Z,101374.66
2023-04-29T17:48:01.431Z,101379.19
2023-04-29T17:50:28.252Z,101385.50
2023-04-29T17:52:55.092Z,101384.75
2023-04-29T17:55:21.956Z,101386.63
2023-04-29T17:57:48.712Z,101392.91
2023-04-29T18:00:15.774Z,101392.97
2023-04-29T18:02:42.592Z,101400.19
2023-04-29T18:05:09.548Z,101401.19
2023-04-29T18:07:36.338Z,101406.63
2023-04-29T18:10:03.703Z,101410.31
2023-04-29T18:12:30.538Z,101405.06
2023-04-29T18:14:57.460Z,101410.56
2023-04-29T18:17:24.289Z,101412.44
2023-04-29T18:19:51.255Z,101409.84
2023-04-29T18:22:19.124Z,101418.84
2023-04-29T18:24:47.955Z,101416.25
2023-04-29T18:27:14.697Z,101413.72
2023-04-29T18:29:41.480Z,101410.22
2023-04-29T18:32:08.427Z,101419.22
2023-04-29T18:34:35.653Z,101420.22
2023-04-29T18:37:02.471Z,101424.75
2023-04-29T18:39:29.418Z,101419.47
2023-04-29T18:41:56.223Z,101426.69
2023-04-29T18:44:23.131Z,101433.88
2023-04-29T18:46:50.008Z,101441.13
2023-04-29T18:49:17.736Z,101442.97
2023-04-29T18:51:47.774Z,101444.84
2023-04-29T18:54:17.205Z,101444.91
2023-04-29T18:56:49.345Z,101461.91
2023-04-29T18:59:18.837Z,101455.75
2023-04-29T19:01:47.172Z,101459.34
2023-04-29T19:04:14.520Z,101470.97
2023-04-29T19:06:41.964Z,101470.13
2023-04-29T19:09:13.997Z,101465.72
2023-04-29T19:11:40.747Z,101480.97
2023-04-29T19:14:07.590Z,101481.00
2023-04-29T19:16:36.890Z,101481.06
2023-04-29T19:19:06.518Z,101485.53
2023-04-29T19:21:35.714Z,101486.47
2023-04-29T19:24:02.509Z,101484.75
2023-04-29T19:26:34.719Z,101499.06
2023-04-29T19:29:02.815Z,101497.28
2023-04-29T19:31:29.648Z,101500.88
2023-04-29T19:33:56.460Z,101503.59
2023-04-29T19:36:23.212Z,101509.84
2023-04-29T19:38:50.026Z,101514.34
2023-04-29T19:41:17.691Z,101511.72
2023-04-29T19:43:44.452Z,101520.63
2023-04-29T19:46:14.671Z,101518.00
2023-04-29T19:48:41.793Z,101534.03
2023-04-29T19:51:09.254Z,101530.50
2023-04-29T19:53:36.984Z,101534.97
2023-04-29T19:56:03.837Z,101540.31
2023-04-29T19:58:30.796Z,101533.22
2023-04-29T20:00:57.661Z,101544.81
2023-04-29T20:03:25.308Z,101546.59
2023-04-29T20:05:52.507Z,101546.63
2023-04-29T20:08:19.341Z,101556.44
2023-04-29T20:10:46.231Z,101556.44
2023-04-29T20:13:12.978Z,101561.81
2023-04-29T20:15:40.112Z,101565.38
2023-04-29T20:18:06.907Z,101568.94
2023-04-29T20:20:33.713Z,101566.28
2023-04-29T20:23:00.485Z,101575.19
2023-04-29T20:25:28.412Z,101577.88
2023-04-29T20:27:57.873Z,101584.97
2023-04-29T20:30:26.052Z,101588.56
2023-04-29T20:32:52.904Z,101592.13
2023-04-29T20:35:20.929Z,101593.03
2023-04-29T20:37:47.919Z,101593.91
2023-04-29T20:40:14.719Z,101597.50
2023-04-29T20:42:41.810Z,101596.63
2023-04-29T20:45:09.182Z,101597.53
2023-04-29T20:47:35.997Z,101595.72
2023-04-29T20:50:04.702Z,101607.28
2023-04-29T20:52:34.526Z,101606.41
2023-04-29T20:55:01.459Z,101609.97
2023-04-29T20:57:28.424Z,101608.13
2023-04-29T20:59:55.701Z,101607.28
2023-04-29T21:02:22.749Z,101607.28
2023-04-29T21:04:49.838Z,101609.94
2023-04-29T21:07:16.724Z,101610.81
2023-04-29T21:09:43.595Z,101613.50
2023-04-29T21:12:10.346Z,101618.81
2023-04-29T21:14:37.490Z,101627.69
2023-04-29T21:17:04.304Z,101629.44
2023-04-29T21:19:31.068Z,101629.44
2023-04-29T21:21:57.882Z,101633.00
2023-04-29T21:24:24.733Z,101630.31
2023-04-29T21:26:51.530Z,101627.66
2023-04-29T21:29:19.760Z,101624.09
2023-04-29T21:31:46.707Z,101634.75
2023-04-29T21:34:13.520Z,101634.75
2023-04-29T21:36:40.395Z,101639.19
2023-04-29T21:39:07.280Z,101638.28
2023-04-29T21:41:38.917Z,101646.22
2023-04-29T21:44:07.515Z,101647.13
2023-04-29T21:46:35.795Z,101645.31
2023-04-29T21:49:04.019Z,101645.31
2023-04-29T21:51:31.657Z,101652.41
2023-04-29T21:53:58.514Z,101653.28
2023-04-29T21:56:25.628Z,101659.47
2023-04-29T21:58:53.257Z,101656.78
2023-04-29T22:01:38.419Z,101660.34
2023-04-29T22:04:05.239Z,101654.13
2023-04-29T22:06:33.278Z,101654.97
2023-04-29T22:09:00.180Z,101654.94
2023-04-29T22:11:26.927Z,101657.59
2023-04-29T22:13:53.722Z,101659.31
2023-04-29T22:16:20.705Z,101661.97
2023-04-29T22:18:48.066Z,101652.22
2023-04-29T22:21:15.314Z,101656.59
2023-04-29T22:23:42.840Z,101659.25
2023-04-29T22:26:09.670Z,101658.38
2023-04-29T22:28:36.456Z,101659.22
2023-04-29T22:31:03.332Z,101668.06
2023-04-29T22:33:30.258Z,101675.16
2023-04-29T22:35:57.058Z,101677.78
2023-04-29T22:38:23.958Z,101676.88
2023-04-29T22:40:51.871Z,101680.41
2023-04-29T22:43:18.686Z,101676.84
2023-04-29T22:45:53.288Z,101686.53
2023-04-29T22:48:20.683Z,101680.34
2023-04-29T22:50:55.577Z,101681.22
2023-04-29T22:53:22.888Z,101684.75
2023-04-29T22:55:58.936Z,101690.03
2023-04-29T22:58:26.324Z,101685.59
2023-04-29T23:00:57.752Z,101691.78
2023-04-29T23:03:25.853Z,101694.44
2023-04-29T23:06:02.584Z,101692.66
2023-04-29T23:08:29.462Z,101697.06
2023-04-29T23:10:56.327Z,101694.41
2023-04-29T23:13:23.122Z,101694.38
2023-04-29T23:15:49.893Z,101704.13
2023-04-29T23:18:16.705Z,101705.00
2023-04-29T23:20:47.724Z,101716.50
2023-04-29T23:23:15.414Z,101710.28
2023-04-29T23:25:42.715Z,101714.66
2023-04-29T23:28:09.719Z,101710.22
2023-04-29T23:30:36.533Z,101713.75
2023-04-29T23:33:03.402Z,101724.38
2023-04-29T23:35:31.575Z,101716.38
2023-04-29T23:37:58.360Z,101730.56
2023-04-29T23:40:25.170Z,101718.09
2023-04-29T23:42:52.023Z,101720.75
2023-04-29T23:45:18.858Z,101724.28
2023-04-29T23:47:45.787Z,101724.25
2023-04-29T23:50:12.548Z,101721.59
2023-04-29T23:52:39.365Z,101725.06
2023-04-29T23:55:06.990Z,101723.28
2023-04-29T23:57:33.817Z,101722.34
